x

Portlock Bank- 76nm Ene Of Kodiak, Ak (46080) Wave Buoy

10:50pm - Fri 26th May 2017 All times are AKDT. -8 hours from GMT.

  • Sig Wave height 3.9ft
  • Peak Period 6s
  • Average Period 4s
  • Wind
    9mph, 11mph gusts
  • Sea Temp 45°f
  • Air Temp 42°f
  • Sea Pressure 1019.4mb
  • Portlock Bank- 76nm Ene Of Kodiak, Ak
  • Portlock Bank- 76nm Ene Of Kodiak, Ak

More Historic Weather Station data

Upgrade to MSW Pro to gain access to the past 30 days of data for over 8000 Wavebouys and Weather Stations around the globe.

Join Pro

Comparision Forecast

View Surf forecast
   
Fri 05/26 10:50pm 4ft 6s 4s 9 11 mph 1019.4mb 45f 42f
9:50pm 3.5ft 6s 4s 16 27 mph 1019.5mb 45f 42f
8:50pm 3.5ft 5s 4s 13 16 mph 1019.6mb 45f 44f
7:50pm 3.5ft 5s 4s 13 18 mph 1019.8mb 45f 44f
6:50pm 3.5ft 5s 5s 16 18 mph 1019.9mb 45f 44f
5:50pm 3.5ft 5s 4s 16 20 mph 1020mb 45f 43f
4:50pm 3.5ft 6s 4s 11 16 mph 1020.3mb 45f 43f
3:50pm 4ft 5s 4s 18 22 mph 1020.4mb 45f 45f
2:50pm 4ft 6s 4s 18 20 mph 1020.3mb 45f 44f
1:50pm 4.5ft 9s 5s 13 16 mph 1020.4mb 45f 44f
12:50pm 4.5ft 6s 5s 13 16 mph 1020.5mb 45f 44f
11:50am 4.5ft 6s 5s 13 18 mph 1020.6mb 45f 44f
10:50am 4.5ft 6s 5s 13 16 mph 1020.6mb 45f 44f
9:50am 4.5ft 7s 5s 13 16 mph 1020.6mb 45f 44f
8:50am 4.5ft 7s 5s 13 18 mph 1020.6mb 44f 44f
7:50am 5ft 6s 5s 16 18 mph 1020.4mb 44f 44f
6:50am 5ft 7s 5s 18 20 mph 1020.1mb 44f 44f
5:50am 5ft 6s 5s 18 20 mph 1020.1mb 44f 44f
4:50am 5ft 6s 5s 16 20 mph 1019.9mb 44f 44f
3:50am 5ft 7s 5s 16 18 mph 1020mb 44f 44f
2:50am 5ft 7s 5s 13 16 mph 1020.2mb 45f 44f
1:50am 5ft 6s 5s 16 18 mph 1020.2mb 45f 44f
12:50am 5ft 6s 5s 16 20 mph 1019.9mb 45f 45f
Thu 05/25 11:50pm 5ft 6s 5s 16 20 mph 1019.8mb 45f 45f
10:50pm 5ft 7s 5s 16 18 mph 1019.6mb 45f 45f
9:50pm 5ft 7s 5s 13 16 mph 1019.5mb 45f 45f
8:50pm 5ft 8s 5s 13 16 mph 1019.3mb 45f 45f
7:50pm 5ft 7s 5s 16 18 mph 1019.1mb 45f 45f
6:50pm 5.5ft 7s 5s 18 20 mph 1018.9mb 45f 45f
5:50pm 5.5ft 8s 5s 16 18 mph 1018.7mb 45f 45f
4:50pm 5.5ft 6s 5s 11 13 mph 1018.6mb 45f 45f
3:50pm 5.5ft 9s 5s 13 16 mph 1018.4mb 45f 44f
2:50pm 5.5ft 8s 5s 18 20 mph 1018.2mb 45f 44f
1:50pm 6ft 7s 5s 18 20 mph 1018.1mb 45f 44f
12:50pm 7ft 7s 5s 20 25 mph 1018mb 45f 44f
11:50am 7ft 7s 6s 20 25 mph 1017.8mb 45f 44f
10:50am 6.5ft 7s 5s 20 25 mph 1018mb 45f 44f
9:50am 7ft 8s 6s 20 25 mph 1018.1mb 45f 44f
8:50am 6.5ft 9s 6s 20 25 mph 1018.1mb 44f 44f
7:50am 7ft 9s 6s 20 27 mph 1018.1mb 44f 44f
6:50am 7ft 8s 6s 20 27 mph 1018mb 44f 44f
5:50am 7.5ft 9s 6s 22 25 mph 1018.3mb 44f 44f
4:50am 8ft 8s 6s 20 25 mph 1018.2mb 44f 44f
3:50am 8ft 9s 6s 20 22 mph 1018.6mb 44f 44f
2:50am 8ft 9s 6s 18 22 mph 1018.5mb 45f 44f
1:50am 9ft 9s 6s 20 25 mph 1018.6mb 45f 44f
12:50am 8.5ft 8s 6s 20 25 mph 1018.7mb 45f 45f
Wed 05/24 11:50pm 8ft 10s 6s 18 22 mph 1018.6mb 45f 45f
10:50pm 8.5ft 9s 6s 18 22 mph 1018.2mb 45f 45f
9:50pm 9ft 8s 6s 16 18 mph 1018mb 45f 45f
8:50pm 9ft 9s 6s 20 22 mph 1018mb 45f 45f
7:50pm 10ft 10s 6s 25 29 mph 1017.7mb 45f 45f
6:50pm 9ft 8s 6s 25 31 mph 1017.3mb 45f 46f
5:50pm 11ft 9s 6s 27 34 mph 1016.9mb 45f 46f
4:50pm 11ft 9s 6s 27 34 mph 1017.1mb 44f 46f
3:50pm 10ft 8s 6s 29 34 mph 1016.9mb 45f 46f
2:50pm 10.5ft 8s 6s 27 34 mph 1017.1mb 45f 45f
1:50pm 10ft 7s 6s 27 34 mph 1017.3mb 45f 45f
12:50pm 11ft 9s 6s 27 34 mph 1017.3mb 45f 46f
11:50am 10ft 8s 6s 29 31 mph 1017.5mb 45f 46f
10:50am 10.5ft 9s 6s 27 36 mph 1017.8mb 45f 46f
9:50am 10ft 9s 6s 27 31 mph 1018mb 45f 46f
8:50am 9ft 7s 6s 27 31 mph 1018.1mb 44f 46f
7:50am 10ft 7s 6s 25 29 mph 1018.3mb 44f 45f
6:50am 10ft 8s 6s 27 34 mph 1018.2mb 44f 46f
5:50am 9ft 8s 6s 27 31 mph 1018.3mb 45f 45f
4:50am 9ft 8s 6s 29 36 mph 1018.3mb 45f 45f
3:50am 10ft 8s 6s 27 34 mph 1018.3mb 45f 45f
2:50am 9ft 8s 5s 25 31 mph 1018.6mb 45f 46f
1:50am 8.5ft 7s 6s 25 34 mph 1018.7mb 45f 46f
12:50am 8ft 7s 5s 25 31 mph 1019.3mb 45f 45f
Tue 05/23 11:50pm 8.5ft 7s 5s 25 29 mph 1019.3mb 45f 45f
10:50pm 8ft 7s 6s 22 27 mph 1019.4mb 45f 45f
9:50pm 7.5ft 6s 5s 22 31 mph 1019.6mb 45f 45f
8:50pm 7ft 7s 5s 25 29 mph 1019.8mb 45f 45f
7:50pm 6.5ft 7s 5s 20 27 mph 1020.3mb 45f 45f
6:50pm 7ft 10s 5s 22 27 mph 1020.7mb 45f 45f
5:50pm 6ft 8s 5s 20 25 mph 1021mb 45f 45f
4:50pm 7ft 8s 5s 22 25 mph 1021mb 45f 45f
3:50pm 6ft 9s 5s 22 27 mph 1020.7mb 45f 46f
2:50pm 5.5ft 9s 5s 22 27 mph 1020.8mb 45f 46f
1:50pm 5ft 10s 5s 22 25 mph 1020.7mb 45f 45f
12:50pm 4.5ft 9s 6s 11 13 mph 1020.4mb 45f 45f
11:50am 5ft 11s 6s 11 13 mph 1020.5mb 45f 45f
10:50am 5ft 11s 6s 13 16 mph 1020.3mb 45f 45f
9:50am 5ft 9s 5s 16 18 mph 1019.9mb 45f 45f
8:50am 5ft 8s 5s 18 20 mph 1019.6mb 45f 45f